Time;durP1;ratioP1;P1;durP2;ratioP2;P2;SDS_P1;SDS_P2;PMS_P1;PMS_P2;Temp;Humidity;BMP_temperature;BMP_pressure;BME280_temperature;BME280_humidity;BME280_pressure;Samples;Min_cycle;Max_cycle;Signal;HPM_P1;HPM_P2
2023/03/15 00:01:13;;;;;;;1.63;0.47;;;;;;;;;;4993481;28;20825;-81
2023/03/15 00:03:39;;;;;;;6.23;1.17;;;;;;;;;;4993358;28;20483;-82
2023/03/15 00:06:06;;;;;;;6.23;1.20;;;;;;;;;;4992989;28;20426;-81
2023/03/15 00:08:32;;;;;;;0.70;0.33;;;;;;;;;;4993324;28;20413;-82
2023/03/15 00:10:58;;;;;;;3.23;0.50;;;;;;;;;;4993423;28;20413;-81
2023/03/15 00:13:24;;;;;;;6.80;1.03;;;;;;;;;;5024894;28;20433;-83
2023/03/15 00:15:52;;;;;;;3.60;0.40;;;;;;;;;;4993292;28;20495;-82
2023/03/15 00:18:19;;;;;;;3.97;0.67;;;;;;;;;;5024707;28;20457;-80
2023/03/15 00:20:46;;;;;;;7.20;3.00;;;;;;;;;;5003973;28;21074;-81
2023/03/15 00:23:12;;;;;;;1.70;0.80;;;;;;;;;;5012150;28;20468;-80
2023/03/15 00:25:38;;;;;;;3.67;1.07;;;;;;;;;;5010953;28;20868;-80
2023/03/15 00:28:04;;;;;;;0.93;0.50;;;;;;;;;;4979390;28;20528;-80
2023/03/15 00:30:30;;;;;;;1.50;0.43;;;;;;;;;;5007591;28;20424;-82
2023/03/15 00:32:56;;;;;;;1.07;0.50;;;;;;;;;;5012381;28;20411;-81
2023/03/15 00:35:22;;;;;;;1.17;0.50;;;;;;;;;;5011657;28;20772;-81
2023/03/15 00:37:49;;;;;;;2.27;0.70;;;;;;;;;;5011577;28;20597;-82
2023/03/15 00:40:15;;;;;;;0.87;0.30;;;;;;;;;;5011175;28;20418;-82
2023/03/15 00:42:48;;;;;;;3.53;0.90;;;;;;;;;;5010958;28;20809;-82
2023/03/15 00:45:14;;;;;;;3.13;0.60;;;;;;;;;;5010771;28;20572;-83
2023/03/15 00:47:40;;;;;;;0.87;0.70;;;;;;;;;;5012250;28;20493;-82
2023/03/15 00:50:10;;;;;;;3.23;0.40;;;;;;;;;;5009808;28;21020;-80
2023/03/15 00:52:36;;;;;;;1.60;0.50;;;;;;;;;;5011775;28;20425;-81
2023/03/15 00:55:04;;;;;;;2.40;0.67;;;;;;;;;;5011264;28;20451;-80
2023/03/15 00:57:32;;;;;;;3.57;0.90;;;;;;;;;;5011763;28;20415;-81
2023/03/15 00:59:58;;;;;;;0.77;0.30;;;;;;;;;;5010380;28;20426;-82
2023/03/15 01:02:24;;;;;;;1.83;1.03;;;;;;;;;;5011767;28;20420;-82
2023/03/15 01:04:50;;;;;;;6.10;1.50;;;;;;;;;;5011841;28;20414;-81
2023/03/15 01:07:16;;;;;;;1.33;0.60;;;;;;;;;;5010491;28;20426;-82
2023/03/15 01:09:43;;;;;;;3.60;1.03;;;;;;;;;;5011970;28;20967;-81
2023/03/15 01:12:09;;;;;;;4.73;0.87;;;;;;;;;;5011848;28;20421;-82
2023/03/15 01:14:36;;;;;;;3.10;0.63;;;;;;;;;;5011722;28;20471;-81
2023/03/15 01:17:02;;;;;;;3.67;0.60;;;;;;;;;;5027066;28;20410;-81
2023/03/15 01:19:28;;;;;;;2.00;0.77;;;;;;;;;;5011581;28;20465;-81
2023/03/15 01:21:54;;;;;;;2.73;0.60;;;;;;;;;;5012076;28;20422;-80
2023/03/15 01:24:20;;;;;;;1.57;0.90;;;;;;;;;;5043887;28;20473;-86
2023/03/15 01:26:46;;;;;;;1.77;0.50;;;;;;;;;;5042875;28;20426;-81
2023/03/15 01:29:12;;;;;;;3.57;0.60;;;;;;;;;;5011482;28;20427;-80
2023/03/15 01:31:38;;;;;;;1.40;0.90;;;;;;;;;;5012749;28;20402;-80
2023/03/15 01:34:04;;;;;;;3.63;1.30;;;;;;;;;;5012555;28;20411;-81
2023/03/15 01:36:30;;;;;;;4.90;1.50;;;;;;;;;;5011112;28;20559;-81
2023/03/15 01:38:56;;;;;;;1.33;0.70;;;;;;;;;;5012498;28;20406;-81
2023/03/15 01:41:24;;;;;;;5.40;1.50;;;;;;;;;;5011340;28;20406;-82
2023/03/15 01:43:50;;;;;;;1.83;1.17;;;;;;;;;;5011619;28;20823;-82
2023/03/15 01:46:22;;;;;;;5.00;1.63;;;;;;;;;;5012608;28;20468;-80
2023/03/15 01:48:48;;;;;;;4.40;1.60;;;;;;;;;;5011233;28;20826;-81
2023/03/15 01:51:23;;;;;;;2.50;1.00;;;;;;;;;;5009529;28;20431;-81
2023/03/15 01:54:02;;;;;;;1.80;0.60;;;;;;;;;;5028334;28;20433;-81
2023/03/15 01:56:28;;;;;;;1.90;0.77;;;;;;;;;;5012049;28;20445;-80
2023/03/15 01:58:55;;;;;;;2.50;0.77;;;;;;;;;;5016272;28;20486;-80
2023/03/15 02:01:21;;;;;;;2.63;0.77;;;;;;;;;;5015003;28;20464;-80
2023/03/15 02:03:48;;;;;;;3.30;0.50;;;;;;;;;;5014835;28;20574;-80
2023/03/15 02:06:17;;;;;;;1.90;0.50;;;;;;;;;;5015992;28;20836;-81
2023/03/15 02:08:51;;;;;;;0.73;0.47;;;;;;;;;;5015777;28;20419;-78
2023/03/15 02:11:19;;;;;;;2.73;0.77;;;;;;;;;;5014809;28;20448;-80
2023/03/15 02:13:45;;;;;;;0.90;0.70;;;;;;;;;;5016044;28;20401;-80
2023/03/15 02:16:11;;;;;;;1.60;0.70;;;;;;;;;;5016029;28;20445;-80
2023/03/15 02:18:37;;;;;;;1.10;0.47;;;;;;;;;;5015568;28;20444;-80
2023/03/15 02:21:22;;;;;;;2.20;1.00;;;;;;;;;;5010002;28;21065;-82
2023/03/15 02:23:53;;;;;;;2.70;0.83;;;;;;;;;;5027792;28;20480;-82
2023/03/15 02:26:25;;;;;;;2.23;0.40;;;;;;;;;;5010180;28;20417;-82
2023/03/15 02:28:52;;;;;;;2.90;0.90;;;;;;;;;;5014498;28;20428;-83
2023/03/15 02:31:19;;;;;;;2.80;0.80;;;;;;;;;;5014405;28;20423;-84
2023/03/15 02:33:46;;;;;;;3.73;0.70;;;;;;;;;;5010547;28;20422;-85
2023/03/15 02:36:18;;;;;;;3.07;0.93;;;;;;;;;;5046175;28;20429;-85
2023/03/15 02:38:44;;;;;;;3.80;0.70;;;;;;;;;;5014107;28;20415;-84
2023/03/15 02:41:11;;;;;;;2.80;0.70;;;;;;;;;;5010690;28;20863;-84
2023/03/15 02:43:38;;;;;;;2.77;0.70;;;;;;;;;;5027472;28;20463;-85
2023/03/15 02:46:05;;;;;;;0.73;0.57;;;;;;;;;;4995703;28;20506;-84
2023/03/15 02:48:34;;;;;;;2.63;1.03;;;;;;;;;;4995792;28;20409;-82
2023/03/15 02:51:01;;;;;;;1.33;0.87;;;;;;;;;;5038372;28;20466;-84
2023/03/15 02:53:28;;;;;;;4.10;1.00;;;;;;;;;;5015417;28;20406;-84
2023/03/15 02:55:54;;;;;;;0.93;0.40;;;;;;;;;;5014392;28;20429;-83
2023/03/15 02:58:20;;;;;;;1.30;0.60;;;;;;;;;;5014075;28;20917;-84
2023/03/15 03:00:46;;;;;;;3.43;0.47;;;;;;;;;;5013307;28;20419;-85
2023/03/15 03:03:11;;;;;;;2.80;1.40;;;;;;;;;;5013059;28;20474;-85
2023/03/15 03:05:37;;;;;;;1.60;1.00;;;;;;;;;;5014893;28;20409;-85
2023/03/15 03:08:03;;;;;;;2.20;1.03;;;;;;;;;;5015140;28;20848;-84
2023/03/15 03:10:29;;;;;;;2.83;0.43;;;;;;;;;;5015116;28;20434;-84
2023/03/15 03:12:55;;;;;;;1.10;0.50;;;;;;;;;;5014847;28;20502;-85
2023/03/15 03:15:21;;;;;;;1.67;0.63;;;;;;;;;;5015007;28;20410;-83
2023/03/15 03:17:47;;;;;;;1.90;0.63;;;;;;;;;;5014805;28;20406;-85
2023/03/15 03:20:14;;;;;;;1.90;0.87;;;;;;;;;;5013829;28;20500;-83
2023/03/15 03:22:40;;;;;;;4.07;0.80;;;;;;;;;;5046120;28;20988;-85
2023/03/15 03:25:09;;;;;;;1.97;0.60;;;;;;;;;;5013949;28;20441;-82
2023/03/15 03:27:35;;;;;;;3.40;1.37;;;;;;;;;;5010074;28;20481;-83
2023/03/15 03:30:03;;;;;;;0.70;0.40;;;;;;;;;;5003520;28;20422;-82
2023/03/15 03:32:29;;;;;;;1.20;0.73;;;;;;;;;;5014640;28;20448;-83
2023/03/15 03:34:55;;;;;;;3.00;1.00;;;;;;;;;;5014511;28;20442;-82
2023/03/15 03:37:20;;;;;;;2.93;0.50;;;;;;;;;;5014152;28;20428;-83
2023/03/15 03:39:46;;;;;;;9.03;1.03;;;;;;;;;;5014394;28;20409;-83
2023/03/15 03:42:13;;;;;;;2.80;0.67;;;;;;;;;;5014358;28;20432;-83
2023/03/15 03:44:39;;;;;;;0.67;0.30;;;;;;;;;;5012948;28;21008;-84
2023/03/15 03:47:05;;;;;;;2.60;0.77;;;;;;;;;;5012987;28;20946;-83
2023/03/15 03:49:31;;;;;;;2.00;0.63;;;;;;;;;;5013932;28;20422;-82
2023/03/15 03:51:59;;;;;;;2.07;1.00;;;;;;;;;;5008669;28;20442;-82
2023/03/15 03:54:25;;;;;;;1.23;0.50;;;;;;;;;;4994644;28;20412;-82
2023/03/15 03:56:51;;;;;;;3.27;0.97;;;;;;;;;;5043965;28;20982;-82
2023/03/15 03:59:17;;;;;;;0.97;0.50;;;;;;;;;;5012828;28;20420;-81
2023/03/15 04:01:43;;;;;;;1.73;0.63;;;;;;;;;;5012857;28;20921;-81
2023/03/15 04:04:12;;;;;;;2.00;1.37;;;;;;;;;;5014084;28;20480;-81
2023/03/15 04:06:38;;;;;;;2.43;1.40;;;;;;;;;;5013494;28;20735;-81
2023/03/15 04:09:04;;;;;;;2.60;1.10;;;;;;;;;;5013780;28;20426;-81
2023/03/15 04:11:30;;;;;;;2.30;1.37;;;;;;;;;;5012496;28;20938;-81
2023/03/15 04:13:56;;;;;;;2.00;0.87;;;;;;;;;;5012119;28;20433;-81
2023/03/15 04:16:23;;;;;;;1.47;0.80;;;;;;;;;;5013854;28;20410;-82
2023/03/15 04:18:49;;;;;;;3.50;1.20;;;;;;;;;;5013463;28;20927;-81
2023/03/15 04:21:15;;;;;;;1.73;1.00;;;;;;;;;;5008189;28;20431;-82
2023/03/15 04:23:41;;;;;;;2.30;1.20;;;;;;;;;;4994103;28;20482;-82
2023/03/15 04:26:07;;;;;;;3.37;1.50;;;;;;;;;;4994311;28;20899;-82
2023/03/15 04:28:33;;;;;;;1.87;1.13;;;;;;;;;;4994066;28;20418;-82
2023/03/15 04:31:00;;;;;;;2.27;1.00;;;;;;;;;;4994272;28;20425;-85
2023/03/15 04:33:26;;;;;;;3.17;1.37;;;;;;;;;;4994184;28;20477;-83
2023/03/15 04:35:52;;;;;;;9.77;2.70;;;;;;;;;;4993952;28;20399;-84
2023/03/15 04:38:18;;;;;;;2.17;1.63;;;;;;;;;;5025504;28;20462;-83
2023/03/15 04:40:45;;;;;;;6.50;1.90;;;;;;;;;;4993921;28;20486;-83
2023/03/15 04:43:11;;;;;;;6.10;2.63;;;;;;;;;;4993890;28;20866;-84
2023/03/15 04:45:36;;;;;;;3.47;1.83;;;;;;;;;;4996282;28;20411;-83
2023/03/15 04:48:02;;;;;;;6.13;2.57;;;;;;;;;;4993886;28;20419;-83
2023/03/15 04:50:29;;;;;;;6.20;2.83;;;;;;;;;;4993532;28;20458;-84
2023/03/15 04:52:56;;;;;;;2.83;1.80;;;;;;;;;;4993984;28;20419;-83
2023/03/15 04:55:23;;;;;;;2.77;2.00;;;;;;;;;;4993771;28;20431;-83
2023/03/15 04:57:48;;;;;;;2.93;2.27;;;;;;;;;;4993655;28;20825;-82
2023/03/15 05:00:17;;;;;;;2.13;1.40;;;;;;;;;;5025147;28;20423;-82
2023/03/15 05:02:44;;;;;;;7.40;2.20;;;;;;;;;;5024995;28;20513;-84
2023/03/15 05:05:11;;;;;;;2.13;1.93;;;;;;;;;;5025007;28;20427;-83
2023/03/15 05:07:37;;;;;;;3.57;1.60;;;;;;;;;;4994013;28;20449;-85
2023/03/15 05:10:04;;;;;;;3.67;2.67;;;;;;;;;;5025254;28;20427;-83
2023/03/15 05:12:30;;;;;;;3.90;2.43;;;;;;;;;;4993681;28;20406;-87
2023/03/15 05:14:56;;;;;;;6.30;3.83;;;;;;;;;;5025391;28;20459;-83
2023/03/15 05:17:22;;;;;;;4.40;3.27;;;;;;;;;;5005190;28;20926;-83
2023/03/15 05:19:48;;;;;;;5.37;2.80;;;;;;;;;;5044495;28;20825;-82
2023/03/15 05:22:15;;;;;;;8.23;3.60;;;;;;;;;;5012893;28;20421;-82
2023/03/15 05:24:41;;;;;;;9.17;3.93;;;;;;;;;;5045385;28;20473;-82
2023/03/15 05:27:12;;;;;;;7.07;3.03;;;;;;;;;;5008703;28;20445;-82
2023/03/15 05:29:38;;;;;;;4.20;3.10;;;;;;;;;;5016608;28;21015;-83
2023/03/15 05:32:04;;;;;;;7.07;3.50;;;;;;;;;;5016444;28;20432;-82
2023/03/15 05:34:31;;;;;;;5.87;3.20;;;;;;;;;;5017123;28;20421;-83
2023/03/15 05:36:57;;;;;;;5.97;3.17;;;;;;;;;;5015432;28;20909;-82
2023/03/15 05:39:23;;;;;;;7.70;4.13;;;;;;;;;;5016979;28;20875;-86
2023/03/15 05:41:49;;;;;;;5.67;3.20;;;;;;;;;;5016919;28;20480;-82
2023/03/15 05:44:15;;;;;;;7.27;3.27;;;;;;;;;;5015507;28;20560;-81
2023/03/15 05:46:41;;;;;;;5.70;4.33;;;;;;;;;;5016877;28;20413;-83
2023/03/15 05:49:07;;;;;;;6.37;3.73;;;;;;;;;;5016889;28;20411;-83
2023/03/15 05:51:33;;;;;;;8.63;4.20;;;;;;;;;;5015449;28;20421;-82
2023/03/15 05:53:59;;;;;;;6.90;3.43;;;;;;;;;;5017445;28;20414;-88
2023/03/15 05:56:25;;;;;;;6.23;3.20;;;;;;;;;;5016022;28;20971;-83
2023/03/15 05:58:51;;;;;;;4.10;2.90;;;;;;;;;;5016701;28;20426;-83
2023/03/15 06:01:17;;;;;;;9.47;4.20;;;;;;;;;;5016699;28;20467;-83
2023/03/15 06:03:43;;;;;;;5.20;4.10;;;;;;;;;;5015158;28;20477;-83
2023/03/15 06:06:09;;;;;;;6.30;2.73;;;;;;;;;;5015036;28;20434;-82
2023/03/15 06:08:35;;;;;;;6.57;3.10;;;;;;;;;;5016544;28;20410;-81
2023/03/15 06:11:04;;;;;;;3.43;1.90;;;;;;;;;;5016401;28;20430;-83
2023/03/15 06:13:30;;;;;;;5.40;3.73;;;;;;;;;;5019116;28;20442;-82
2023/03/15 06:15:55;;;;;;;6.53;3.80;;;;;;;;;;5016272;28;20827;-82
2023/03/15 06:18:21;;;;;;;5.70;3.33;;;;;;;;;;5016175;28;20405;-82
2023/03/15 06:20:47;;;;;;;11.03;3.13;;;;;;;;;;5014424;28;20473;-82
2023/03/15 06:23:13;;;;;;;6.30;3.20;;;;;;;;;;5011293;28;20529;-83
2023/03/15 06:25:39;;;;;;;4.30;2.80;;;;;;;;;;5011499;28;20433;-82
2023/03/15 06:28:08;;;;;;;5.60;3.33;;;;;;;;;;5003304;28;20790;-82
2023/03/15 06:30:34;;;;;;;7.10;3.07;;;;;;;;;;5015993;28;20414;-83
2023/03/15 06:33:02;;;;;;;5.37;2.63;;;;;;;;;;5016319;28;20421;-82
2023/03/15 06:35:28;;;;;;;5.70;2.63;;;;;;;;;;5047100;28;20424;-85
2023/03/15 06:37:54;;;;;;;3.83;2.10;;;;;;;;;;5015814;28;20898;-82
2023/03/15 06:40:20;;;;;;;5.37;3.37;;;;;;;;;;5015217;28;20402;-83
2023/03/15 06:42:46;;;;;;;6.77;2.30;;;;;;;;;;5047542;28;20564;-82
2023/03/15 06:45:15;;;;;;;8.73;4.43;;;;;;;;;;5047661;28;20426;-85
2023/03/15 06:47:41;;;;;;;6.03;2.93;;;;;;;;;;5015571;28;20461;-83
2023/03/15 06:50:07;;;;;;;5.40;2.70;;;;;;;;;;5015456;28;20414;-84
2023/03/15 06:52:33;;;;;;;5.27;3.23;;;;;;;;;;5015708;28;20419;-86
2023/03/15 06:54:59;;;;;;;7.10;3.30;;;;;;;;;;5015541;28;20497;-86
2023/03/15 06:57:25;;;;;;;4.90;2.50;;;;;;;;;;5047414;28;20794;-88
2023/03/15 06:59:52;;;;;;;4.67;2.60;;;;;;;;;;5015358;28;20460;-84
2023/03/15 07:02:19;;;;;;;4.63;2.90;;;;;;;;;;5047282;28;20779;-84
2023/03/15 07:04:45;;;;;;;4.10;2.53;;;;;;;;;;5014997;28;20473;-83
2023/03/15 07:07:13;;;;;;;5.30;2.60;;;;;;;;;;5015394;28;20446;-83
2023/03/15 07:09:39;;;;;;;4.57;2.87;;;;;;;;;;5015757;28;20808;-84
2023/03/15 07:12:06;;;;;;;3.50;1.83;;;;;;;;;;5015057;28;20418;-82
2023/03/15 07:14:33;;;;;;;4.63;2.47;;;;;;;;;;5014850;28;20433;-83
2023/03/15 07:16:59;;;;;;;3.67;1.63;;;;;;;;;;5013376;28;20406;-83
2023/03/15 07:19:25;;;;;;;4.00;1.13;;;;;;;;;;5014847;28;20528;-83
2023/03/15 07:21:51;;;;;;;3.03;1.03;;;;;;;;;;5013351;28;20412;-83
2023/03/15 07:24:17;;;;;;;3.17;0.97;;;;;;;;;;5013647;28;20490;-84
2023/03/15 07:26:45;;;;;;;2.00;0.77;;;;;;;;;;5013695;28;20533;-83
2023/03/15 07:29:11;;;;;;;3.17;1.07;;;;;;;;;;4973995;28;20889;-83
2023/03/15 07:31:37;;;;;;;3.30;1.37;;;;;;;;;;5046347;28;20518;-83
2023/03/15 07:34:03;;;;;;;3.97;0.60;;;;;;;;;;5014433;28;20775;-84
2023/03/15 07:36:31;;;;;;;2.63;0.70;;;;;;;;;;5046168;28;20422;-85
2023/03/15 07:38:57;;;;;;;3.13;1.07;;;;;;;;;;5014684;28;20421;-84
2023/03/15 07:41:22;;;;;;;2.40;1.47;;;;;;;;;;5017356;28;20420;-86
2023/03/15 07:43:48;;;;;;;2.30;0.70;;;;;;;;;;5014649;28;20613;-83
2023/03/15 07:46:14;;;;;;;3.07;1.83;;;;;;;;;;5014552;28;20169;-83
2023/03/15 07:48:40;;;;;;;2.57;0.83;;;;;;;;;;5013835;28;20422;-83
2023/03/15 07:51:06;;;;;;;5.10;1.10;;;;;;;;;;5014114;28;20418;-83
2023/03/15 07:53:35;;;;;;;12.37;4.20;;;;;;;;;;5014675;28;20178;-82
2023/03/15 07:56:01;;;;;;;3.10;0.93;;;;;;;;;;5014127;28;20427;-83
2023/03/15 07:58:27;;;;;;;2.20;1.00;;;;;;;;;;5014318;28;20416;-83
2023/03/15 08:00:57;;;;;;;1.37;0.90;;;;;;;;;;5014113;28;20436;-83
2023/03/15 08:03:27;;;;;;;1.80;0.60;;;;;;;;;;5013325;28;20565;-83
2023/03/15 08:05:56;;;;;;;0.90;0.60;;;;;;;;;;5044827;28;20415;-82
2023/03/15 08:08:22;;;;;;;1.03;0.43;;;;;;;;;;5014142;28;20178;-83
2023/03/15 08:10:58;;;;;;;3.20;0.80;;;;;;;;;;5014071;28;20406;-82
2023/03/15 08:13:24;;;;;;;2.87;0.60;;;;;;;;;;5046024;28;20502;-82
2023/03/15 08:15:52;;;;;;;2.13;1.93;;;;;;;;;;5013910;28;20418;-84
2023/03/15 08:18:18;;;;;;;1.10;0.80;;;;;;;;;;5013700;28;20418;-82
2023/03/15 08:20:44;;;;;;;1.93;0.50;;;;;;;;;;5008657;28;20470;-83
2023/03/15 08:23:15;;;;;;;3.60;0.77;;;;;;;;;;5025736;28;20462;-83
2023/03/15 08:25:42;;;;;;;3.90;1.20;;;;;;;;;;5025957;28;20426;-86
2023/03/15 08:28:28;;;;;;;4.80;1.50;;;;;;;;;;4994230;28;20414;-84
2023/03/15 08:30:57;;;;;;;4.60;1.27;;;;;;;;;;4972315;28;20480;-82
2023/03/15 08:33:23;;;;;;;3.13;0.80;;;;;;;;;;5045478;28;20464;-84
2023/03/15 08:35:53;;;;;;;1.43;0.57;;;;;;;;;;5045135;28;20422;-83
2023/03/15 08:38:22;;;;;;;1.60;0.70;;;;;;;;;;5045307;28;20423;-83
2023/03/15 08:40:48;;;;;;;1.10;0.43;;;;;;;;;;5013573;28;20419;-83
2023/03/15 08:43:13;;;;;;;1.53;0.30;;;;;;;;;;5045367;28;20477;-84
2023/03/15 08:45:40;;;;;;;1.27;0.47;;;;;;;;;;5045311;28;20858;-84
2023/03/15 08:48:05;;;;;;;2.13;0.70;;;;;;;;;;5045272;28;20826;-84
2023/03/15 08:50:31;;;;;;;1.40;0.40;;;;;;;;;;5044860;28;20418;-84
2023/03/15 08:52:58;;;;;;;1.33;0.30;;;;;;;;;;5045135;28;20421;-85
2023/03/15 08:55:24;;;;;;;1.90;0.20;;;;;;;;;;5045106;28;20438;-85
2023/03/15 08:57:50;;;;;;;1.80;0.70;;;;;;;;;;5013666;28;20422;-85
2023/03/15 09:00:19;;;;;;;1.50;0.63;;;;;;;;;;5044958;28;20988;-84
2023/03/15 09:02:47;;;;;;;1.00;0.30;;;;;;;;;;5013420;28;20410;-82
2023/03/15 09:05:14;;;;;;;1.43;0.40;;;;;;;;;;5027891;28;20456;-85
2023/03/15 09:07:41;;;;;;;0.97;0.20;;;;;;;;;;5044802;28;20904;-82
2023/03/15 09:10:07;;;;;;;1.07;0.80;;;;;;;;;;5011915;28;20433;-82
2023/03/15 09:12:33;;;;;;;1.23;0.30;;;;;;;;;;5011840;28;20417;-82
2023/03/15 09:14:59;;;;;;;1.03;0.33;;;;;;;;;;5013246;28;20744;-82
2023/03/15 09:17:25;;;;;;;1.83;0.30;;;;;;;;;;5011906;28;20175;-83
2023/03/15 09:19:51;;;;;;;1.70;0.40;;;;;;;;;;5012472;28;20602;-82
2023/03/15 09:22:17;;;;;;;1.47;0.47;;;;;;;;;;5008249;28;20179;-83
2023/03/15 09:24:43;;;;;;;2.23;0.30;;;;;;;;;;4993349;28;20484;-82
2023/03/15 09:27:10;;;;;;;2.87;0.67;;;;;;;;;;5025042;28;20416;-82
2023/03/15 09:29:36;;;;;;;1.90;0.47;;;;;;;;;;4993500;28;20181;-82
2023/03/15 09:32:03;;;;;;;1.80;0.50;;;;;;;;;;4966552;28;20529;-82
2023/03/15 09:34:29;;;;;;;5.93;0.70;;;;;;;;;;5012779;28;20514;-84
2023/03/15 09:36:55;;;;;;;1.40;0.60;;;;;;;;;;5013092;28;20498;-84
2023/03/15 09:39:22;;;;;;;2.10;0.40;;;;;;;;;;5013028;28;20172;-83
2023/03/15 09:41:53;;;;;;;2.20;0.30;;;;;;;;;;5012877;28;20492;-83
2023/03/15 09:44:22;;;;;;;3.93;0.53;;;;;;;;;;5044681;28;21024;-84
2023/03/15 09:46:57;;;;;;;1.37;0.30;;;;;;;;;;5011764;28;20424;-82
2023/03/15 09:49:42;;;;;;;1.37;0.20;;;;;;;;;;5011218;28;20473;-81
2023/03/15 09:52:15;;;;;;;1.80;0.20;;;;;;;;;;5011394;28;20940;-82
2023/03/15 09:54:45;;;;;;;0.83;0.37;;;;;;;;;;5012497;28;20427;-82
2023/03/15 09:57:15;;;;;;;1.23;0.50;;;;;;;;;;5012693;28;20514;-81
2023/03/15 09:59:46;;;;;;;4.17;0.80;;;;;;;;;;5011521;28;20426;-84
2023/03/15 10:02:18;;;;;;;5.10;0.70;;;;;;;;;;5011219;28;20423;-82
2023/03/15 10:04:46;;;;;;;0.93;0.20;;;;;;;;;;5009792;28;20511;-83
2023/03/15 10:07:13;;;;;;;0.40;0.27;;;;;;;;;;5010173;28;20460;-83
2023/03/15 10:09:39;;;;;;;2.07;0.20;;;;;;;;;;5010979;28;20428;-83
2023/03/15 10:12:12;;;;;;;2.10;0.40;;;;;;;;;;5014005;28;20420;-83
2023/03/15 10:14:57;;;;;;;2.40;0.20;;;;;;;;;;5015083;28;20414;-83
2023/03/15 10:17:30;;;;;;;0.77;0.20;;;;;;;;;;5014982;28;20413;-83
2023/03/15 10:20:03;;;;;;;1.47;0.30;;;;;;;;;;5014466;28;20469;-83
2023/03/15 10:22:46;;;;;;;2.07;0.20;;;;;;;;;;5014922;28;20414;-84
2023/03/15 10:25:25;;;;;;;0.77;0.30;;;;;;;;;;5015063;28;20926;-84
2023/03/15 10:27:51;;;;;;;1.47;0.30;;;;;;;;;;5014974;28;20454;-82
2023/03/15 10:30:19;;;;;;;1.93;0.80;;;;;;;;;;5016099;28;20410;-83
2023/03/15 10:32:47;;;;;;;2.07;0.20;;;;;;;;;;4975506;28;20189;-83
2023/03/15 10:35:15;;;;;;;4.83;0.70;;;;;;;;;;5015513;28;20501;-83
2023/03/15 10:37:41;;;;;;;4.53;0.37;;;;;;;;;;5015993;28;20414;-82
2023/03/15 10:40:18;;;;;;;2.53;0.47;;;;;;;;;;5016993;28;20426;-82
2023/03/15 10:42:45;;;;;;;2.40;0.50;;;;;;;;;;5015669;28;20816;-83
2023/03/15 10:45:22;;;;;;;2.00;0.50;;;;;;;;;;5047472;28;20418;-83
2023/03/15 10:47:49;;;;;;;1.80;0.50;;;;;;;;;;5015732;28;20421;-83
2023/03/15 10:50:25;;;;;;;3.47;0.60;;;;;;;;;;5015559;28;20405;-83
2023/03/15 10:52:54;;;;;;;1.20;0.33;;;;;;;;;;5016095;28;20804;-83
2023/03/15 10:55:25;;;;;;;1.87;0.33;;;;;;;;;;5015066;28;20519;-83
2023/03/15 10:57:54;;;;;;;2.87;0.40;;;;;;;;;;5015826;28;20426;-84
2023/03/15 11:00:30;;;;;;;3.90;0.40;;;;;;;;;;5047182;28;20420;-84
2023/03/15 11:03:16;;;;;;;4.67;1.60;;;;;;;;;;5014306;28;20430;-84
2023/03/15 11:05:46;;;;;;;1.80;0.30;;;;;;;;;;5047472;28;20440;-86
2023/03/15 11:08:13;;;;;;;2.50;0.20;;;;;;;;;;5015655;28;20420;-84
2023/03/15 11:10:39;;;;;;;2.10;0.30;;;;;;;;;;5015258;28;20424;-83
2023/03/15 11:13:25;;;;;;;4.10;0.40;;;;;;;;;;5013137;28;20511;-84
2023/03/15 11:16:10;;;;;;;2.30;0.40;;;;;;;;;;5009824;28;20947;-83
2023/03/15 11:18:39;;;;;;;2.00;0.53;;;;;;;;;;5029488;28;21161;-85
2023/03/15 11:21:08;;;;;;;1.70;0.50;;;;;;;;;;5009813;28;20486;-84
2023/03/15 11:23:36;;;;;;;3.07;0.43;;;;;;;;;;4994045;28;20485;-86
2023/03/15 11:26:02;;;;;;;2.00;0.30;;;;;;;;;;5010207;28;20428;-78
2023/03/15 11:28:30;;;;;;;2.60;0.30;;;;;;;;;;4995251;28;20425;-82
2023/03/15 11:30:59;;;;;;;2.60;0.20;;;;;;;;;;4995160;28;21053;-85
2023/03/15 11:33:40;;;;;;;3.03;0.20;;;;;;;;;;4970209;28;20762;-81
2023/03/15 11:36:08;;;;;;;4.23;0.30;;;;;;;;;;5014157;28;20427;-84
2023/03/15 11:38:44;;;;;;;3.83;0.20;;;;;;;;;;5014495;28;20512;-84
2023/03/15 11:41:14;;;;;;;1.77;0.23;;;;;;;;;;5014503;28;20429;-86
2023/03/15 11:43:52;;;;;;;1.43;0.20;;;;;;;;;;5009849;28;20481;-85
2023/03/15 11:46:24;;;;;;;3.23;0.60;;;;;;;;;;5004217;28;20428;-86
2023/03/15 11:49:01;;;;;;;1.07;0.20;;;;;;;;;;5027976;28;20449;-86
2023/03/15 11:51:36;;;;;;;2.60;0.23;;;;;;;;;;5013168;28;20413;-87
2023/03/15 11:54:13;;;;;;;2.47;0.33;;;;;;;;;;5014462;28;20504;-84
2023/03/15 11:56:56;;;;;;;0.60;0.27;;;;;;;;;;5013232;28;20422;-85
2023/03/15 11:59:28;;;;;;;2.07;0.30;;;;;;;;;;5013132;28;20429;-84
2023/03/15 12:02:18;;;;;;;3.13;0.40;;;;;;;;;;5014473;28;20409;-84
2023/03/15 12:05:01;;;;;;;2.73;0.30;;;;;;;;;;5012021;28;20852;-86
2023/03/15 12:07:36;;;;;;;1.97;0.57;;;7.90;99.90;;;;;;5013282;28;20464;-86
2023/03/15 12:10:03;;;;;;;78.70;9.90;;;;;;;;;;5014172;28;20771;-80
2023/03/15 12:12:29;;;;;;;2.10;0.60;;;8.10;1.00;;;;;;5014217;28;20177;-81
2023/03/15 12:15:13;;;;;;;0.67;0.33;;;7.80;1.00;;;;;;5008631;28;20191;-83
2023/03/15 12:17:45;;;;;;;2.83;0.93;;;7.30;99.90;;;;;;5026017;28;20182;-86
2023/03/15 12:20:10;;;;;;;3.37;0.90;;;7.30;99.90;;;;;;5005065;28;20478;-82
2023/03/15 12:22:40;;;;;;;1.43;0.40;;;8.40;1.00;;;;;;4994057;28;20425;-81
2023/03/15 12:25:15;;;;;;;0.73;0.30;;;8.70;1.00;;;;;;4994130;28;20216;-80
2023/03/15 12:27:50;;;;;;;2.83;0.60;;;8.50;1.00;;;;;;4994199;28;20432;-82
2023/03/15 12:30:40;;;;;;;2.27;0.30;;;8.30;1.00;;;;;;4994914;28;20453;-81
2023/03/15 12:33:15;;;;;;;9.63;0.83;;;8.00;1.00;;;;;;5012790;28;20420;-82
2023/03/15 12:35:41;;;;;;;2.73;0.40;;;7.70;1.00;;;;;;5000183;28;20412;-82
2023/03/15 12:38:19;;;;;;;1.80;1.07;;;7.50;99.90;;;;;;4985753;28;20518;-82
2023/03/15 12:40:56;;;;;;;3.47;0.70;;;7.60;99.90;;;;;;5013428;28;20443;-83
2023/03/15 12:43:51;;;;;;;2.20;0.50;;;8.40;99.90;;;;;;5012619;28;21143;-83
2023/03/15 12:46:35;;;;;;;2.20;0.30;;;10.10;1.00;;;;;;4994068;28;20419;-82
2023/03/15 12:49:31;;;;;;;4.27;0.30;;;10.70;99.90;;;;;;4993644;28;20430;-82
2023/03/15 12:52:00;;;;;;;1.90;0.20;;;10.20;99.90;;;;;;4993860;28;20427;-82
2023/03/15 12:54:59;;;;;;;3.07;0.40;;;9.80;99.90;;;;;;4993741;28;20415;-82
2023/03/15 12:57:28;;;;;;;5.70;0.50;;;9.30;99.90;;;;;;4993560;28;20424;-83
2023/03/15 12:59:59;;;;;;;5.03;0.70;;;9.10;99.90;;;;;;4993787;28;20988;-83
2023/03/15 13:02:37;;;;;;;3.20;0.53;;;9.10;99.90;;;;;;4993715;28;20968;-83
2023/03/15 13:05:27;;;;;;;4.03;0.30;;;9.40;99.90;;;;;;4993275;28;20465;-83
2023/03/15 13:07:56;;;;;;;2.00;0.30;;;9.70;99.90;;;;;;4993650;28;20420;-83
2023/03/15 13:10:35;;;;;;;6.90;0.50;;;10.30;99.90;;;;;;4993741;28;20415;-82
2023/03/15 13:13:13;;;;;;;1.90;0.40;;;10.90;99.90;;;;;;4993622;28;20794;-83
2023/03/15 13:16:07;;;;;;;3.37;0.30;;;11.70;99.90;;;;;;4993515;28;20425;-83
2023/03/15 13:18:48;;;;;;;2.67;0.20;;;12.20;99.90;;;;;;4993615;28;20408;-83
2023/03/15 13:21:37;;;;;;;5.33;0.73;;;12.90;99.90;;;;;;4993482;28;20447;-80
2023/03/15 13:24:10;;;;;;;1.47;0.30;;;13.30;99.90;;;;;;4993195;28;20502;-80
2023/03/15 13:26:48;;;;;;;2.00;0.23;;;13.10;99.90;;;;;;4993255;28;20409;-81
2023/03/15 13:29:18;;;;;;;2.13;0.20;;;13.10;99.90;;;;;;4991913;28;20949;-81
2023/03/15 13:31:45;;;;;;;1.90;0.30;;;13.30;99.90;;;;;;4993250;28;20410;-81
2023/03/15 13:34:15;;;;;;;1.70;0.30;;;13.30;99.90;;;;;;4992911;28;20410;-81
2023/03/15 13:36:46;;;;;;;2.10;0.20;;;13.30;99.90;;;;;;4980204;28;21071;-81
2023/03/15 13:39:26;;;;;;;2.00;0.20;;;13.10;99.90;;;;;;5001219;28;20418;-83
2023/03/15 13:42:04;;;;;;;1.70;0.27;;;12.50;95.90;;;;;;5012872;28;20548;-83
2023/03/15 13:44:31;;;;;;;1.80;0.53;;;12.00;97.60;;;;;;5011416;28;20846;-82
2023/03/15 13:46:57;;;;;;;6.80;0.20;;;11.90;95.90;;;;;;5015460;28;20404;-83
2023/03/15 13:49:23;;;;;;;2.20;0.40;;;11.70;97.90;;;;;;5015825;28;20978;-83
2023/03/15 13:51:51;;;;;;;3.90;0.50;;;11.30;95.40;;;;;;5016019;28;20413;-83
2023/03/15 13:54:23;;;;;;;5.10;0.87;;;11.20;98.50;;;;;;5015602;28;20419;-83
2023/03/15 13:57:06;;;;;;;4.63;0.40;;;11.10;98.00;;;;;;5011476;28;20859;-83
2023/03/15 13:59:37;;;;;;;2.70;0.47;;;11.20;99.90;;;;;;4995727;28;20429;-82
2023/03/15 14:02:06;;;;;;;5.10;0.77;;;11.40;99.90;;;;;;4996120;28;20515;-83
2023/03/15 14:04:36;;;;;;;5.47;0.60;;;10.90;73.30;;;;;;5011259;28;21015;-83
2023/03/15 14:07:28;;;;;;;4.23;0.50;;;10.80;58.10;;;;;;5011843;28;20428;-83
2023/03/15 14:10:24;;;;;;;3.07;0.37;;;10.40;55.40;;;;;;4996632;28;20422;-83
2023/03/15 14:12:50;;;;;;;4.20;0.80;;;10.30;49.20;;;;;;5016085;28;20970;-83
2023/03/15 14:15:40;;;;;;;7.53;0.50;;;10.00;47.30;;;;;;5014935;28;20792;-83
2023/03/15 14:18:06;;;;;;;10.20;0.97;;;9.90;45.50;;;;;;5016155;28;20766;-83
2023/03/15 14:20:58;;;;;;;2.93;0.30;;;9.70;53.80;;;;;;5009861;28;20486;-81
2023/03/15 14:23:25;;;;;;;2.70;1.07;;;9.80;45.20;;;;;;4995325;28;20204;-83
2023/03/15 14:26:06;;;;;;;3.93;0.60;;;9.50;43.40;;;;;;5006502;28;20442;-83
2023/03/15 14:28:32;;;;;;;2.23;0.30;;;9.60;46.90;;;;;;5015936;28;20410;-83
2023/03/15 14:30:59;;;;;;;4.73;0.30;;;9.40;47.30;;;;;;5031094;28;20453;-84
2023/03/15 14:33:40;;;;;;;5.80;0.47;;;9.20;40.50;;;;;;5014235;28;20422;-81
2023/03/15 14:36:21;;;;;;;4.13;0.50;;;9.20;46.70;;;;;;5015655;28;20769;-81